»·PEaware :: DAL213 KLAS-KPSP

DAL213 :: KLAS-KPSP

FLIGHT INFORMATION

Flight Status: Arrived
Operator:
Delta Air Lines
More flights by this operator :: More flights under this callsign
Pilot: Nico L. (9332)
Aircraft: BOEING 737-800
(B738)
More flights by this aircraft type
Origin: KLAS McCarran Intl
United States
Destination: KPSP Palm Springs Intl
United States
More flights between these airports :: More routes between these airports
Route: +BOACH8 TNP SBONO1
File this flight plan on PilotEdge
Remarks: Live Streaming on Twitch "DAL213" and YT
Altitude:
(Current/Filed)
22,000ft
Speed:
(Current/Filed)
400kts
Departed: 15-Apr-19 07:20 PM
Arrived: 15-Apr-19 07:56 PM
Distance/Time
Traveled:
365nm/0:36
Distance/Time
To Go:
Arrived

Flight Plot

Page will automatically refresh every two minutes.

Flight plan parsing failed; only flown route is shown


Map Options




Map Legend


Flown Route
Filed Route
Departure Airport
Arrival Airport
Navaid (VOR, NDB)
Fix

Horizontal Profiles

Position Reports

Time Latitude Longitude Heading Altitude Ground
Speed
15-Apr-19 18:57 36.085853 -115.154725 144 2190ft 0kts
15-Apr-19 18:58 36.085853 -115.154725 144 2190ft 0kts
15-Apr-19 18:59 36.085853 -115.154725 144 2190ft 0kts
15-Apr-19 19:00 36.085853 -115.154725 144 2190ft 0kts
15-Apr-19 19:01 36.085853 -115.154725 144 2190ft 0kts
15-Apr-19 19:02 36.085853 -115.154725 144 2190ft 0kts
15-Apr-19 19:03 36.085853 -115.154725 144 2190ft 0kts
15-Apr-19 19:04 36.085853 -115.154725 144 2190ft 0kts
15-Apr-19 19:05 36.085853 -115.154725 144 2190ft 0kts
15-Apr-19 19:06 36.085853 -115.154725 144 2190ft 0kts
15-Apr-19 19:07 36.085853 -115.154725 144 2190ft 0kts
15-Apr-19 19:08 36.085853 -115.154725 144 2190ft 0kts
15-Apr-19 19:09 36.085853 -115.154725 144 2190ft 0kts
15-Apr-19 19:10 36.085853 -115.154725 144 2190ft 0kts
15-Apr-19 19:11 36.086148 -115.155133 112 2190ft 2kts
15-Apr-19 19:12 36.086192 -115.155595 81 2190ft 0kts
15-Apr-19 19:13 36.086192 -115.155595 81 2190ft 0kts
15-Apr-19 19:14 36.086192 -115.155595 81 2190ft 0kts
15-Apr-19 19:15 36.087097 -115.155057 10 2190ft 8kts
15-Apr-19 19:16 36.090715 -115.155006 357 2190ft 14kts
15-Apr-19 19:16 36.093956 -115.154000 24 2190ft 18kts
15-Apr-19 19:18 36.097001 -115.152948 292 2190ft 0kts
15-Apr-19 19:19 36.097186 -115.154132 261 2190ft 16kts
15-Apr-19 19:19 36.077800 -115.165439 203 2533ft 165kts
15-Apr-19 19:20 36.030789 -115.192541 203 4787ft 227kts
15-Apr-19 19:22 35.983737 -115.272998 236 4831ft 264kts
15-Apr-19 19:22 35.932595 -115.305565 188 8136ft 259kts
15-Apr-19 19:23 35.857310 -115.314532 181 10924ft 298kts
15-Apr-19 19:24 35.766096 -115.304819 177 13207ft 347kts
15-Apr-19 19:25 35.667625 -115.294833 183 16219ft 363kts
15-Apr-19 19:26 35.564948 -115.299150 185 19141ft 377kts
15-Apr-19 19:27 35.457846 -115.303406 185 21681ft 393kts
15-Apr-19 19:28 35.344200 -115.307893 184 21772ft 413kts
15-Apr-19 19:29 35.229230 -115.312421 184 21787ft 414kts
15-Apr-19 19:30 35.113786 -115.316956 184 21787ft 414kts
15-Apr-19 19:31 34.998763 -115.321462 184 21796ft 414kts
15-Apr-19 19:32 34.883186 -115.325971 184 21793ft 414kts
15-Apr-19 19:33 34.769072 -115.338582 199 21795ft 412kts
15-Apr-19 19:34 34.661221 -115.383848 201 21814ft 409kts
15-Apr-19 19:35 34.553566 -115.430416 201 21821ft 410kts
15-Apr-19 19:36 34.446360 -115.477154 201 21821ft 410kts
15-Apr-19 19:37 34.339767 -115.525570 209 21825ft 409kts
15-Apr-19 19:38 34.252866 -115.612820 223 21704ft 401kts
15-Apr-19 19:39 34.170776 -115.704202 223 18571ft 401kts
15-Apr-19 19:40 34.094089 -115.785947 215 15719ft 341kts
15-Apr-19 19:41 34.014277 -115.849617 214 13183ft 346kts
15-Apr-19 19:42 33.936030 -115.912590 214 11657ft 325kts
15-Apr-19 19:43 33.881407 -115.984307 238 10798ft 266kts
15-Apr-19 19:44 33.844612 -116.056686 239 10887ft 252kts
15-Apr-19 19:45 33.806345 -116.124114 208 10944ft 241kts
15-Apr-19 19:46 33.741758 -116.141013 192 8951ft 235kts
15-Apr-19 19:47 33.679878 -116.157043 218 7159ft 219kts
15-Apr-19 19:48 33.685021 -116.222295 305 5610ft 232kts
15-Apr-19 19:49 33.716541 -116.286025 283 4365ft 221kts
15-Apr-19 19:50 33.728631 -116.353554 280 3378ft 180kts
15-Apr-19 19:51 33.747332 -116.399342 296 2376ft 133kts
15-Apr-19 19:52 33.769608 -116.435112 309 1744ft 139kts
15-Apr-19 19:53 33.791381 -116.471376 309 1146ft 132kts
15-Apr-19 19:54 33.819613 -116.498789 319 530ft 129kts
15-Apr-19 19:55 33.833012 -116.511858 211 486ft 10kts
15-Apr-19 19:56 33.831969 -116.511803 151 486ft 18kts
15-Apr-19 19:57 33.828414 -116.508612 139 486ft 15kts
15-Apr-19 19:58 33.825359 -116.506756 138 486ft 9kts
15-Apr-19 19:59 33.823919 -116.506491 190 486ft 0kts
15-Apr-19 20:00 33.823919 -116.506491 190 486ft 0kts
15-Apr-19 20:01 33.823919 -116.506491 190 486ft 0kts
15-Apr-19 20:02 33.823919 -116.506491 190 486ft 0kts
15-Apr-19 20:03 33.823919 -116.506491 190 486ft 0kts
15-Apr-19 20:04 33.823919 -116.506491 190 486ft 0kts
15-Apr-19 20:08 37.954267 -107.902720 105 9087ft 0kts
15-Apr-19 20:09 37.954267 -107.902720 105 9087ft 0kts

Navigation Log

Ident Type
Flight plan parsing failed, navigation log unavailable